Time;durP1;ratioP1;P1;durP2;ratioP2;P2;SDS_P1;SDS_P2;PMS_P1;PMS_P2;Temp;Humidity;BMP_temperature;BMP_pressure;BME280_temperature;BME280_humidity;BME280_pressure;Samples;Min_cycle;Max_cycle;Signal;HPM_P1;HPM_P2
2022/01/17 07:09:29;;;;;;;14.88;9.40;;;8.90;56.30;;;;;;5086535;27;1360315;-79
2022/01/17 07:11:58;;;;;;;15.52;9.68;;;9.10;56.30;;;;;;5110573;28;20365;-79
2022/01/17 07:14:28;;;;;;;14.93;9.00;;;9.20;56.20;;;;;;5092466;28;20024;-79
2022/01/17 07:16:53;;;;;;;15.55;9.75;;;9.20;56.40;;;;;;5110316;28;20418;-79
2022/01/17 07:19:19;;;;;;;15.55;9.23;;;9.30;56.10;;;;;;5092269;28;20046;-79
2022/01/17 07:21:45;;;;;;;15.25;9.10;;;9.20;56.10;;;;;;5092060;28;20485;-79
2022/01/17 07:24:11;;;;;;;53.55;28.73;;;9.30;56.40;;;;;;5110277;28;20024;-78
2022/01/17 07:26:36;;;;;;;21.50;13.05;;;9.00;56.60;;;;;;5092131;28;20059;-80
2022/01/17 07:29:09;;;;;;;22.52;13.07;;;8.90;57.10;;;;;;5092108;28;20521;-81
2022/01/17 07:31:36;;;;;;;63.55;31.10;;;8.50;57.80;;;;;;5092195;28;20077;-89
2022/01/17 07:34:02;;;;;;;271.35;103.05;;;8.50;58.40;;;;;;5092350;28;20024;-79
2022/01/17 07:36:29;;;;;;;39.53;17.55;;;8.90;57.40;;;;;;5091992;28;20020;-79
2022/01/17 07:38:55;;;;;;;87.40;36.47;;;9.30;56.70;;;;;;5091966;28;20032;-80
2022/01/17 07:41:20;;;;;;;61.42;28.45;;;9.00;57.50;;;;;;5091688;28;20035;-79
2022/01/17 07:43:47;;;;;;;22.23;11.30;;;8.80;57.60;;;;;;5109914;28;20111;-82
2022/01/17 07:49:28;;;;;;;16.40;9.93;;;8.40;58.40;;;;;;5110915;28;20020;-93
2022/01/17 07:51:36;;;;;;;15.45;9.73;;;8.20;58.80;;;;;;5105604;28;20046;-81
2022/01/17 07:54:03;;;;;;;13.98;8.10;;;8.20;59.30;;;;;;5093436;28;20020;-84
2022/01/17 07:56:31;;;;;;;15.18;8.32;;;8.00;59.30;;;;;;5093989;28;20036;-87
2022/01/17 07:58:57;;;;;;;13.75;8.38;;;8.40;59.00;;;;;;5092997;28;20032;-91
2022/01/17 08:01:23;;;;;;;14.32;8.32;;;8.50;58.20;;;;;;5094032;28;20031;-84
2022/01/17 08:03:48;;;;;;;13.38;8.30;;;8.50;58.50;;;;;;5093317;28;20020;-84
2022/01/17 08:06:14;;;;;;;13.85;8.27;;;8.50;58.60;;;;;;5091787;28;20024;-83
2022/01/17 08:08:42;;;;;;;19.67;7.68;;;8.40;58.90;;;;;;5072841;28;20072;-84
2022/01/17 08:11:11;;;;;;;14.43;8.85;;;8.40;58.50;;;;;;5056505;28;20044;-92
2022/01/17 08:13:42;;;;;;;12.82;7.63;;;8.40;58.90;;;;;;5055896;28;20054;-87
2022/01/17 08:16:19;;;;;;;17.55;10.25;;;8.30;58.80;;;;;;5056137;28;20032;-87
2022/01/17 08:18:48;;;;;;;15.35;9.82;;;8.60;58.50;;;;;;5054181;28;20045;-81
2022/01/17 08:21:14;;;;;;;15.15;9.52;;;8.60;58.30;;;;;;5054859;28;20029;-82
2022/01/17 08:23:45;;;;;;;17.13;8.98;;;8.50;58.70;;;;;;5057686;28;20104;-83
2022/01/17 08:26:20;;;;;;;13.43;8.85;;;8.50;58.70;;;;;;5054876;28;20021;-84
2022/01/17 08:28:57;;;;;;;14.55;8.50;;;8.10;59.70;;;;;;5055940;28;20029;-90
2022/01/17 08:31:23;;;;;;;14.02;8.43;;;8.10;59.80;;;;;;5055163;28;20120;-81
2022/01/17 08:33:52;;;;;;;18.50;10.13;;;8.00;59.80;;;;;;5056817;28;20124;-84
2022/01/17 08:36:20;;;;;;;20.98;8.93;;;8.20;59.70;;;;;;5056147;28;20040;-88
2022/01/17 08:38:50;;;;;;;14.10;9.05;;;8.10;59.70;;;;;;5055927;28;20107;-87
2022/01/17 08:41:20;;;;;;;13.85;8.35;;;8.00;60.10;;;;;;5055592;28;20099;-88
2022/01/17 08:43:46;;;;;;;14.13;8.55;;;8.20;59.70;;;;;;5056152;28;20503;-82
2022/01/17 08:46:12;;;;;;;13.63;8.05;;;8.50;59.30;;;;;;5055955;28;20104;-83
2022/01/17 08:48:39;;;;;;;15.68;8.48;;;8.40;59.30;;;;;;5056158;28;20025;-90
2022/01/17 08:51:04;;;;;;;14.00;7.88;;;8.60;59.00;;;;;;5054325;28;20480;-85
2022/01/17 08:53:30;;;;;;;14.02;8.35;;;8.70;58.50;;;;;;5055653;28;20560;-81
2022/01/17 08:55:56;;;;;;;14.63;8.00;;;8.70;58.60;;;;;;5056275;28;20021;-83
2022/01/17 08:58:27;;;;;;;11.50;7.38;;;8.80;58.40;;;;;;4910647;28;10000897;-81
2022/01/17 09:00:56;;;;;;;12.48;7.45;;;8.50;59.10;;;;;;5070582;28;20246;-82
2022/01/17 09:03:23;;;;;;;12.13;7.10;;;8.70;58.70;;;;;;5073846;28;20025;-81
2022/01/17 09:05:49;;;;;;;15.23;8.82;;;8.80;58.50;;;;;;5074501;28;20460;-94
2022/01/17 09:08:16;;;;;;;21.00;12.00;;;8.70;58.80;;;;;;5075392;28;20051;-81
2022/01/17 09:12:30;;;;;;;13.30;7.28;;;9.10;57.60;;;;;;5072316;28;20375;-80
2022/01/17 09:14:56;;;;;;;13.52;8.73;;;9.00;58.00;;;;;;5070650;28;20039;-80
2022/01/17 09:17:22;;;;;;;12.43;7.38;;;8.90;58.40;;;;;;5070790;28;20040;-91
2022/01/17 09:19:50;;;;;;;13.10;8.68;;;8.90;58.20;;;;;;5069853;28;20075;-80
2022/01/17 09:22:16;;;;;;;12.02;7.50;;;9.00;58.50;;;;;;5071596;28;20032;-85
2022/01/17 09:24:42;;;;;;;13.55;7.82;;;9.10;58.30;;;;;;5071377;28;20049;-84
2022/01/17 09:27:08;;;;;;;11.55;7.40;;;9.40;57.90;;;;;;5070299;28;20064;-79
2022/01/17 09:29:34;;;;;;;12.32;7.30;;;9.80;57.10;;;;;;5071349;28;20035;-79
2022/01/17 09:32:00;;;;;;;19.80;8.35;;;9.90;57.00;;;;;;5071421;28;20029;-91
2022/01/17 09:34:26;;;;;;;12.18;7.03;;;9.80;57.10;;;;;;5069986;28;20032;-86
2022/01/17 09:36:52;;;;;;;13.15;8.27;;;9.80;57.00;;;;;;5070887;28;20021;-85
2022/01/17 09:39:19;;;;;;;11.40;7.90;;;9.80;57.10;;;;;;5070613;28;20033;-79
2022/01/17 09:41:45;;;;;;;12.85;8.13;;;9.90;56.90;;;;;;5069807;28;20078;-79
2022/01/17 09:44:11;;;;;;;13.93;7.75;;;9.60;57.30;;;;;;5068965;28;20071;-80
2022/01/17 09:46:43;;;;;;;10.82;6.85;;;9.60;57.80;;;;;;5069161;28;20423;-92
2022/01/17 09:49:33;;;;;;;13.27;8.60;;;9.50;57.70;;;;;;5068997;28;20484;-79
2022/01/17 09:52:06;;;;;;;17.63;10.50;;;9.60;57.60;;;;;;5070167;28;20055;-84
2022/01/17 09:54:39;;;;;;;17.00;10.23;;;9.60;57.50;;;;;;5070205;28;20459;-79
2022/01/17 09:57:07;;;;;;;14.65;9.18;;;9.70;57.60;;;;;;5069174;28;20082;-90
2022/01/17 10:01:17;;;;;;;13.75;7.88;;;9.40;58.00;;;;;;5091731;27;20406;-83
2022/01/17 10:03:44;;;;;;;14.88;8.88;;;9.60;57.90;;;;;;5091234;28;20028;-85
2022/01/17 10:06:13;;;;;;;12.65;7.90;;;9.70;57.60;;;;;;5091629;28;20031;-91
2022/01/17 10:08:38;;;;;;;13.95;7.97;;;9.50;58.00;;;;;;5092958;28;20024;-90
2022/01/17 10:11:13;;;;;;;12.30;7.50;;;9.70;57.60;;;;;;5091683;28;20390;-82
2022/01/17 10:13:45;;;;;;;11.43;7.88;;;10.20;57.00;;;;;;5089691;28;20036;-81
2022/01/17 10:16:20;;;;;;;11.80;7.72;;;10.70;55.90;;;;;;5090195;28;20088;-91
2022/01/17 10:19:03;;;;;;;14.85;8.15;;;11.10;55.00;;;;;;5090002;28;20572;-80
2022/01/17 10:21:34;;;;;;;13.85;8.20;;;11.20;54.60;;;;;;5090819;28;20027;-80
2022/01/17 10:27:14;;;;;;;13.52;8.15;;;10.60;55.40;;;;;;5090922;28;20028;-92
2022/01/17 10:30:27;;;;;;;16.15;9.25;;;10.20;56.30;;;;;;5090183;28;20025;-91
2022/01/17 10:35:23;;;;;;;16.13;8.98;;;9.90;57.00;;;;;;5091715;28;20047;-80
2022/01/17 10:38:15;;;;;;;20.35;12.18;;;9.90;57.40;;;;;;5090302;28;20042;-80
2022/01/17 10:40:43;;;;;;;13.65;8.98;;;10.20;57.10;;;;;;5089422;28;20040;-82
2022/01/17 10:43:34;;;;;;;13.52;8.02;;;10.30;56.50;;;;;;5089865;28;20140;-94
2022/01/17 10:46:11;;;;;;;13.77;8.77;;;10.20;56.70;;;;;;5093805;28;20052;-80
2022/01/17 10:48:41;;;;;;;13.55;8.57;;;10.20;56.90;;;;;;5089296;28;20058;-92
2022/01/17 10:51:08;;;;;;;13.80;8.40;;;10.50;56.20;;;;;;5089545;28;20409;-92
2022/01/17 10:53:36;;;;;;;14.93;9.32;;;10.30;56.80;;;;;;5091415;28;20060;-82
2022/01/17 10:56:08;;;;;;;14.57;9.02;;;10.50;56.40;;;;;;5089022;28;20035;-85
2022/01/17 10:58:37;;;;;;;16.30;8.25;;;10.00;57.40;;;;;;5090067;28;20058;-93
2022/01/17 11:01:05;;;;;;;15.25;9.98;;;9.90;57.80;;;;;;5091614;28;20127;-94
2022/01/17 11:03:34;;;;;;;13.98;8.52;;;10.00;57.80;;;;;;5089921;28;20021;-85
2022/01/17 11:06:06;;;;;;;16.38;9.50;;;9.90;57.90;;;;;;5090628;28;20056;-81
2022/01/17 11:08:33;;;;;;;12.18;8.38;;;10.20;57.30;;;;;;5090847;28;20020;-92
2022/01/17 11:11:01;;;;;;;16.40;10.18;;;10.00;57.70;;;;;;5085876;28;20536;-91
2022/01/17 11:13:34;;;;;;;13.35;8.07;;;10.00;57.80;;;;;;5076100;28;20021;-87
2022/01/17 11:16:12;;;;;;;15.32;8.35;;;10.10;57.60;;;;;;5078555;28;20092;-88
2022/01/17 11:18:43;;;;;;;15.73;9.23;;;10.20;57.40;;;;;;5075733;28;20379;-87
2022/01/17 11:21:16;;;;;;;;;;;10.20;57.10;;;;;;5077467;28;20037;-94
2022/01/17 11:23:48;;;;;;;12.68;8.68;;;10.20;57.30;;;;;;5077402;28;20016;-93
2022/01/17 11:26:15;;;;;;;13.43;7.97;;;10.10;57.40;;;;;;5076138;28;20034;-81
2022/01/17 11:28:43;;;;;;;12.48;7.60;;;10.00;57.80;;;;;;5075881;28;20020;-94
2022/01/17 11:31:13;;;;;;;12.23;7.95;;;10.10;57.80;;;;;;5075375;28;20029;-92
2022/01/17 11:33:39;;;;;;;13.88;7.47;;;10.20;57.70;;;;;;5075884;28;20531;-93
2022/01/17 11:36:05;;;;;;;11.27;6.97;;;10.40;56.80;;;;;;5075960;28;20032;-85
2022/01/17 11:38:39;;;;;;;13.43;7.90;;;10.20;57.10;;;;;;5075697;28;20047;-80
2022/01/17 11:41:05;;;;;;;12.70;7.50;;;10.50;57.00;;;;;;5074022;28;20044;-81
2022/01/17 11:43:37;;;;;;;10.80;7.07;;;10.80;56.40;;;;;;5074430;28;20020;-87
2022/01/17 11:46:17;;;;;;;19.67;10.40;;;10.40;56.70;;;;;;5074571;28;20024;-81
2022/01/17 11:49:02;;;;;;;13.07;7.22;;;10.30;57.10;;;;;;5074274;28;20043;-80
2022/01/17 11:51:46;;;;;;;12.23;7.75;;;10.60;56.30;;;;;;5075833;28;20444;-81
2022/01/17 11:55:05;;;;;;;11.48;6.95;;;10.50;56.40;;;;;;5088641;27;1388689;-80
2022/01/17 11:57:32;;;;;;;10.30;7.18;;;10.70;56.40;;;;;;5113529;28;20435;-93
2022/01/17 12:00:02;;;;;;;11.77;6.90;;;10.70;56.40;;;;;;5094737;28;20024;-84
2022/01/17 12:02:33;;;;;;;9.98;6.13;;;10.40;56.50;;;;;;5112203;28;20111;-80
2022/01/17 12:05:06;;;;;;;10.65;7.03;;;10.30;56.90;;;;;;5093871;28;20028;-84
2022/01/17 12:07:42;;;;;;;10.80;6.90;;;10.30;57.10;;;;;;5088495;28;20016;-89
2022/01/17 12:10:16;;;;;;;9.73;5.90;;;10.40;56.60;;;;;;5092338;28;20085;-80
2022/01/17 12:13:15;;;;;;;11.75;7.22;;;10.30;56.70;;;;;;5092504;28;20538;-80
2022/01/17 12:16:06;;;;;;;10.18;6.00;;;10.40;56.90;;;;;;5084024;28;20043;-80
2022/01/17 12:18:56;;;;;;;11.00;6.10;;;10.40;56.40;;;;;;5074845;28;20024;-81
2022/01/17 12:21:32;;;;;;;9.05;5.82;;;10.50;56.40;;;;;;5056728;28;20051;-83
2022/01/17 12:24:30;;;;;;;8.60;5.97;;;10.10;57.10;;;;;;5072586;28;20081;-79
2022/01/17 12:27:01;;;;;;;11.20;6.43;;;10.30;57.10;;;;;;5053339;28;20064;-80
2022/01/17 12:30:10;;;;;;;10.68;6.32;;;10.50;56.60;;;;;;5072290;28;20017;-80
2022/01/17 12:32:39;;;;;;;13.32;8.00;;;10.50;56.80;;;;;;5090287;28;20032;-80
2022/01/17 12:35:05;;;;;;;10.35;6.13;;;10.80;56.10;;;;;;5072530;28;20035;-82
2022/01/17 12:38:07;;;;;;;8.93;5.65;;;10.30;56.00;;;;;;5085023;27;1421702;-83
2022/01/17 12:40:42;;;;;;;9.10;6.00;;;10.20;57.10;;;;;;5096315;28;20066;-93
2022/01/17 12:43:11;;;;;;;9.65;6.30;;;10.20;57.20;;;;;;5094448;28;20382;-91
2022/01/17 12:45:42;;;;;;;14.18;6.78;;;10.30;57.00;;;;;;5093371;28;20054;-93
2022/01/17 12:48:13;;;;;;;9.20;5.35;;;10.40;56.90;;;;;;5093530;28;20031;-88
2022/01/17 12:50:42;;;;;;;7.70;5.03;;;10.40;57.50;;;;;;5093797;28;20470;-81
2022/01/17 12:53:11;;;;;;;8.43;5.53;;;10.00;57.30;;;;;;5095375;28;20028;-91
2022/01/17 12:55:43;;;;;;;9.07;5.07;;;9.70;58.40;;;;;;5093492;28;20023;-79
2022/01/17 12:59:47;;;;;;;8.88;5.53;;;9.50;58.30;;;;;;5087048;27;1366309;-82
2022/01/17 13:02:12;;;;;;;8.38;5.28;;;9.80;58.00;;;;;;5094240;28;20028;-80
2022/01/17 13:04:39;;;;;;;12.23;5.40;;;9.80;58.30;;;;;;5095730;28;20050;-84
2022/01/17 13:07:06;;;;;;;9.57;5.30;;;9.60;58.30;;;;;;5090723;28;20028;-86
2022/01/17 13:09:36;;;;;;;10.35;5.47;;;9.60;58.90;;;;;;5072701;28;20048;-81
2022/01/17 13:12:07;;;;;;;10.02;5.22;;;9.30;59.60;;;;;;5072911;28;20065;-79
2022/01/17 13:14:33;;;;;;;8.30;5.20;;;9.20;60.70;;;;;;5072656;28;20058;-86
2022/01/17 13:16:58;;;;;;;8.52;5.10;;;9.30;60.80;;;;;;5090857;28;20055;-83
2022/01/17 13:19:24;;;;;;;7.75;5.03;;;9.50;60.30;;;;;;5072649;28;20037;-81
2022/01/17 13:21:50;;;;;;;9.45;5.20;;;9.40;60.20;;;;;;5073709;28;20062;-80
2022/01/17 13:24:34;;;;;;;9.27;5.70;;;9.50;60.80;;;;;;5072706;28;20464;-87
2022/01/17 13:27:12;;;;;;;9.65;5.97;;;9.50;60.10;;;;;;5073798;28;20024;-82
2022/01/17 13:29:44;;;;;;;10.35;5.90;;;9.50;60.30;;;;;;5074005;28;20024;-80
2022/01/17 13:32:12;;;;;;;9.88;6.55;;;9.60;60.00;;;;;;5072763;28;20119;-82
2022/01/17 13:34:39;;;;;;;11.88;6.32;;;9.90;59.30;;;;;;5072647;28;20043;-80
2022/01/17 13:37:08;;;;;;;12.45;8.73;;;9.50;59.30;;;;;;5072440;28;20041;-80
2022/01/17 13:39:35;;;;;;;11.15;5.97;;;9.60;60.60;;;;;;5090366;28;20028;-84
2022/01/17 13:42:05;;;;;;;8.70;6.28;;;9.60;60.90;;;;;;5089972;28;20029;-80
2022/01/17 13:44:33;;;;;;;9.55;5.43;;;9.80;60.20;;;;;;5090127;28;20047;-82
2022/01/17 13:47:09;;;;;;;9.18;5.68;;;9.60;60.10;;;;;;5090021;28;20124;-80
2022/01/17 13:49:40;;;;;;;8.93;5.43;;;9.80;59.60;;;;;;5071815;28;20024;-88
2022/01/17 13:52:07;;;;;;;8.73;5.15;;;9.90;59.20;;;;;;5072797;28;20119;-81
2022/01/17 13:55:37;;;;;;;8.98;5.38;;;9.80;58.70;;;;;;5132292;27;20368;-81
2022/01/17 13:58:09;;;;;;;10.30;5.45;;;9.80;59.00;;;;;;5113875;28;20393;-81
2022/01/17 14:00:49;;;;;;;8.48;5.32;;;9.80;58.70;;;;;;5131966;28;20035;-81
2022/01/17 14:03:20;;;;;;;;;;;9.50;59.30;;;;;;5132514;28;20024;-81
2022/01/17 14:05:48;;;;;;;8.35;5.25;;;9.90;59.10;;;;;;5113989;28;19913;-83
2022/01/17 14:08:26;;;;;;;8.20;5.22;;;10.00;58.40;;;;;;5145624;27;20019;-81
2022/01/17 14:10:58;;;;;;;9.95;6.28;;;9.90;58.70;;;;;;5156559;27;20097;-90
2022/01/17 14:13:36;;;;;;;12.10;7.20;;;10.00;58.80;;;;;;5137384;27;20473;-81
2022/01/17 14:16:24;;;;;;;7.50;4.90;;;10.40;57.50;;;;;;5152937;27;20023;-81
2022/01/17 14:18:57;;;;;;;10.02;5.35;;;9.90;58.10;;;;;;5155234;27;20031;-80
2022/01/17 14:21:31;;;;;;;8.88;4.93;;;10.00;58.40;;;;;;5154486;27;20102;-93
2022/01/17 14:24:06;;;;;;;10.55;6.20;;;10.00;58.30;;;;;;5152263;27;20030;-81
2022/01/17 14:26:32;;;;;;;9.10;5.28;;;10.00;58.90;;;;;;5152439;27;20026;-82
2022/01/17 14:28:58;;;;;;;12.05;5.28;;;10.20;57.80;;;;;;5151881;27;20029;-86
2022/01/17 14:31:30;;;;;;;10.23;5.25;;;10.20;58.20;;;;;;5133445;27;20027;-81
2022/01/17 14:34:08;;;;;;;8.18;4.50;;;9.90;58.80;;;;;;5133746;27;20477;-81
2022/01/17 14:36:34;;;;;;;9.18;4.88;;;10.00;58.60;;;;;;5152011;27;20021;-85
2022/01/17 14:39:01;;;;;;;6.05;3.65;;;10.00;58.40;;;;;;5134767;27;20026;-93
2022/01/17 14:41:37;;;;;;;7.10;4.53;;;10.20;58.20;;;;;;5134317;27;20027;-93
2022/01/17 14:44:12;;;;;;;6.55;3.90;;;10.50;57.70;;;;;;5133453;27;20023;-86
2022/01/17 14:46:58;;;;;;;9.65;4.80;;;10.30;57.70;;;;;;5134125;27;20018;-93
2022/01/17 14:49:25;;;;;;;6.43;4.00;;;10.40;57.80;;;;;;5133844;27;20031;-79
2022/01/17 14:51:53;;;;;;;7.07;4.05;;;10.80;56.80;;;;;;5136427;27;20057;-81
2022/01/17 14:54:27;;;;;;;27.90;12.82;;;10.30;57.60;;;;;;5151460;27;20046;-79
2022/01/17 15:00:53;;;;;;;15.35;8.38;;;10.40;57.60;;;;;;5111900;28;20445;-80
2022/01/17 15:03:26;;;;;;;6.82;4.00;;;10.50;58.10;;;;;;5093902;28;20054;-85
2022/01/17 15:05:52;;;;;;;6.53;4.00;;;10.30;57.70;;;;;;5093378;28;20043;-83
2022/01/17 15:08:18;;;;;;;6.45;3.95;;;9.80;59.20;;;;;;5079497;28;20020;-80
2022/01/17 15:10:45;;;;;;;7.38;3.75;;;10.10;58.80;;;;;;5073283;28;20402;-81
2022/01/17 15:13:11;;;;;;;7.18;4.05;;;10.40;58.10;;;;;;5090931;28;20056;-79
2022/01/17 15:15:39;;;;;;;7.63;4.00;;;10.60;57.70;;;;;;5090541;28;20024;-83
2022/01/17 15:18:08;;;;;;;6.30;3.92;;;10.30;58.00;;;;;;5072735;28;20098;-81
2022/01/17 15:20:34;;;;;;;10.27;5.57;;;9.70;59.60;;;;;;5073359;28;20028;-82
2022/01/17 15:23:01;;;;;;;12.57;6.28;;;10.00;59.20;;;;;;5072372;28;20060;-84
2022/01/17 15:25:27;;;;;;;9.20;5.25;;;9.70;59.90;;;;;;5072409;28;20020;-80
2022/01/17 15:27:53;;;;;;;7.28;3.83;;;9.60;60.70;;;;;;5072557;28;20386;-81
2022/01/17 15:30:19;;;;;;;8.60;4.60;;;9.50;60.60;;;;;;5090273;28;20031;-79
2022/01/17 15:32:48;;;;;;;9.50;5.70;;;10.00;60.00;;;;;;5090772;28;20571;-81
2022/01/17 15:37:04;;;;;;;7.97;5.00;;;9.90;59.30;;;;;;5078553;27;1576563;-82
2022/01/17 15:39:30;;;;;;;10.68;6.43;;;10.10;59.80;;;;;;5093438;28;20122;-83
2022/01/17 15:42:01;;;;;;;29.00;12.25;;;10.50;58.50;;;;;;5092786;28;20030;-82
2022/01/17 15:44:27;;;;;;;11.98;6.15;;;10.70;58.00;;;;;;5092925;28;20030;-82
2022/01/17 15:46:53;;;;;;;13.95;6.95;;;11.10;57.60;;;;;;5093169;28;20059;-83
2022/01/17 15:49:19;;;;;;;13.77;6.75;;;10.40;58.20;;;;;;5112630;28;20059;-84
2022/01/17 15:51:44;;;;;;;14.00;5.97;;;10.20;59.00;;;;;;5093613;28;20465;-82
2022/01/17 15:54:11;;;;;;;12.80;6.25;;;9.90;59.50;;;;;;5111715;28;20024;-87
2022/01/17 15:56:36;;;;;;;12.02;6.47;;;10.20;59.30;;;;;;5092646;28;20036;-80
2022/01/17 15:59:06;;;;;;;5.97;3.65;;;10.30;58.70;;;;;;5093125;28;20027;-83
2022/01/17 16:01:32;;;;;;;20.10;11.25;;;9.70;59.70;;;;;;5111632;28;20028;-84
2022/01/17 16:03:58;;;;;;;35.35;16.92;;;9.90;59.60;;;;;;5093384;28;20083;-81
2022/01/17 16:06:25;;;;;;;14.10;6.90;;;10.30;58.80;;;;;;5093254;28;20560;-80
2022/01/17 16:09:00;;;;;;;27.48;14.68;;;10.20;58.70;;;;;;5074939;28;20025;-82
2022/01/17 16:11:26;;;;;;;13.55;8.32;;;10.20;59.30;;;;;;5074225;28;20074;-80
2022/01/17 16:13:56;;;;;;;8.77;4.80;;;10.00;60.20;;;;;;5074796;28;20035;-82
2022/01/17 16:16:23;;;;;;;9.48;5.15;;;10.20;59.70;;;;;;5075165;28;20127;-80
2022/01/17 16:18:51;;;;;;;7.00;4.28;;;10.70;59.80;;;;;;5072797;28;20054;-80
2022/01/17 16:21:17;;;;;;;9.40;4.78;;;10.60;58.90;;;;;;5073035;28;20077;-81
2022/01/17 16:23:43;;;;;;;1327.90;723.95;;;10.20;60.50;;;;;;5076143;28;20115;-82
2022/01/17 16:26:09;;;;;;;18.20;13.00;;;10.20;61.50;;;;;;5090623;28;20103;-82
2022/01/17 16:28:34;;;;;;;7.13;4.40;;;9.80;62.40;;;;;;5072915;28;20021;-84
2022/01/17 16:31:01;;;;;;;13.02;8.95;;;9.30;64.40;;;;;;5072750;28;20031;-80
2022/01/17 16:33:28;;;;;;;11.02;7.38;;;9.10;66.80;;;;;;5090688;28;20023;-81
2022/01/17 16:35:54;;;;;;;7.90;4.80;;;8.70;69.10;;;;;;5073907;28;20138;-80
2022/01/17 16:38:20;;;;;;;8.55;4.22;;;8.60;70.60;;;;;;5074408;28;20030;-80
2022/01/17 16:40:46;;;;;;;10.02;5.28;;;8.40;70.50;;;;;;5090628;28;20479;-82
2022/01/17 16:43:13;;;;;;;17.85;14.48;;;8.20;71.20;;;;;;5090358;28;20036;-89
2022/01/17 16:45:39;;;;;;;15.02;9.00;;;8.00;71.00;;;;;;5091687;28;20028;-83
2022/01/17 16:48:06;;;;;;;15.85;13.07;;;8.00;71.70;;;;;;5061468;28;20032;-80
2022/01/17 16:50:32;;;;;;;7.25;4.22;;;8.10;71.80;;;;;;5060528;28;20115;-82
2022/01/17 16:52:58;;;;;;;7.47;5.28;;;8.10;70.30;;;;;;5062641;28;20101;-84
2022/01/17 16:55:24;;;;;;;9.27;5.65;;;8.30;71.10;;;;;;5062155;28;20037;-82
2022/01/17 16:57:49;;;;;;;22.27;18.48;;;8.40;69.40;;;;;;5063121;28;20024;-94
2022/01/17 17:00:16;;;;;;;7.40;4.10;;;8.70;69.10;;;;;;5061218;28;20035;-81
2022/01/17 17:02:45;;;;;;;3.85;2.20;;;8.90;67.60;;;;;;5060760;28;20024;-81
2022/01/17 17:05:11;;;;;;;7.32;4.70;;;9.00;66.30;;;;;;5061851;28;20042;-81
2022/01/17 17:07:37;;;;;;;6.57;4.20;;;9.10;66.90;;;;;;5059923;28;20116;-88
2022/01/17 17:10:04;;;;;;;19.90;12.82;;;9.30;66.40;;;;;;5082394;28;20021;-91
2022/01/17 17:12:30;;;;;;;21.30;14.02;;;9.50;66.00;;;;;;5066164;28;20086;-96
2022/01/17 17:14:56;;;;;;;24.55;15.05;;;9.40;65.30;;;;;;5062418;28;20045;-82
2022/01/17 17:17:21;;;;;;;16.77;9.82;;;9.30;66.30;;;;;;5060306;28;20039;-81
2022/01/17 17:19:47;;;;;;;10.73;9.63;;;9.60;64.30;;;;;;5059705;28;20025;-80
2022/01/17 17:22:15;;;;;;;8.30;5.97;;;9.30;63.70;;;;;;5061598;28;20028;-82
2022/01/17 17:24:42;;;;;;;8.95;7.72;;;9.10;63.70;;;;;;5061965;28;20112;-91
2022/01/17 17:27:08;;;;;;;4.45;2.40;;;9.00;64.00;;;;;;5060700;28;20029;-80
2022/01/17 17:29:34;;;;;;;4.68;1.35;;;9.10;62.90;;;;;;5084808;28;20084;-95
2022/01/17 17:32:00;;;;;;;17.42;9.73;;;9.20;61.50;;;;;;5040369;28;20088;-84
2022/01/17 17:34:27;;;;;;;24.25;19.08;;;9.60;62.20;;;;;;5056430;28;20032;-80
2022/01/17 17:36:54;;;;;;;7.07;5.10;;;9.80;61.40;;;;;;5052967;28;20049;-79
2022/01/17 17:39:22;;;;;;;28.27;23.27;;;9.40;62.00;;;;;;5054189;28;20055;-86
2022/01/17 17:41:48;;;;;;;9.10;6.57;;;9.40;62.40;;;;;;5035358;28;20095;-78
2022/01/17 17:44:14;;;;;;;17.85;10.73;;;9.50;62.50;;;;;;5035279;28;20033;-81
2022/01/17 17:46:40;;;;;;;24.75;17.38;;;9.80;62.00;;;;;;5035951;28;20463;-81
2022/01/17 17:49:07;;;;;;;23.70;11.95;;;10.00;61.70;;;;;;5053818;28;20040;-81
2022/01/17 17:51:34;;;;;;;24.58;11.52;;;9.90;61.50;;;;;;5054069;28;20029;-79
2022/01/17 17:54:00;;;;;;;21.48;10.13;;;9.90;61.50;;;;;;5040038;28;20025;-82
2022/01/17 17:56:26;;;;;;;6.55;4.30;;;10.30;60.30;;;;;;5056186;28;20056;-85
2022/01/17 17:58:52;;;;;;;5.53;2.83;;;10.20;60.40;;;;;;5036366;28;20088;-83
2022/01/17 18:01:18;;;;;;;11.15;7.35;;;9.80;60.80;;;;;;5037752;28;20115;-81
2022/01/17 18:03:44;;;;;;;15.73;12.77;;;9.10;62.10;;;;;;5055709;28;20128;-83
2022/01/17 18:06:10;;;;;;;12.85;9.98;;;9.10;62.60;;;;;;5055642;28;20029;-80
2022/01/17 18:08:37;;;;;;;5.60;3.75;;;8.90;63.30;;;;;;5038011;28;20025;-91
2022/01/17 18:11:02;;;;;;;8.68;5.00;;;9.00;61.80;;;;;;5035721;28;20025;-80
2022/01/17 18:13:28;;;;;;;5.10;3.20;;;9.30;61.20;;;;;;5035205;28;20040;-80
2022/01/17 18:15:54;;;;;;;9.35;5.15;;;9.50;60.80;;;;;;5053741;28;20037;-79
2022/01/17 18:18:19;;;;;;;7.93;4.95;;;9.40;60.50;;;;;;5035448;28;20025;-80
2022/01/17 18:20:45;;;;;;;5.72;2.70;;;9.00;60.90;;;;;;5035819;28;20040;-82
2022/01/17 18:23:11;;;;;;;6.13;3.10;;;8.70;61.10;;;;;;5051878;28;20025;-81
2022/01/17 18:25:37;;;;;;;6.68;2.35;;;8.60;61.20;;;;;;5035631;28;20523;-83
2022/01/17 18:28:03;;;;;;;4.55;3.17;;;8.40;61.20;;;;;;5056211;28;20025;-94
2022/01/17 18:30:29;;;;;;;4.15;1.98;;;8.50;62.20;;;;;;5057832;28;20035;-80
2022/01/17 18:32:54;;;;;;;8.90;3.85;;;8.80;60.00;;;;;;5063104;28;20451;-82
2022/01/17 18:35:21;;;;;;;55.25;27.15;;;8.90;60.00;;;;;;5052672;28;20049;-79
2022/01/17 18:37:48;;;;;;;149.45;85.68;;;8.80;60.00;;;;;;5053150;28;20033;-79
2022/01/17 18:40:16;;;;;;;48.45;32.90;;;9.00;58.90;;;;;;5052603;28;20021;-91
2022/01/17 18:42:41;;;;;;;110.57;75.72;;;9.10;58.50;;;;;;5053067;28;20027;-79
2022/01/17 18:45:08;;;;;;;18.45;11.15;;;9.10;58.40;;;;;;5051812;28;20033;-93
2022/01/17 18:47:33;;;;;;;74.35;34.70;;;9.10;59.00;;;;;;5052283;28;20025;-80
2022/01/17 18:50:00;;;;;;;56.63;23.83;;;8.70;59.50;;;;;;5053254;28;20056;-92
2022/01/17 18:52:33;;;;;;;22.67;16.30;;;8.70;59.70;;;;;;5053446;28;20032;-80
2022/01/17 18:54:59;;;;;;;21.80;15.07;;;8.70;59.80;;;;;;5050687;28;20031;-80
2022/01/17 18:57:25;;;;;;;17.13;9.98;;;8.40;60.80;;;;;;5052784;28;20063;-92
2022/01/17 18:59:52;;;;;;;46.75;32.55;;;8.30;60.80;;;;;;5051629;28;20044;-92
2022/01/17 19:02:17;;;;;;;24.38;17.17;;;8.50;60.90;;;;;;5052154;28;20025;-82
2022/01/17 19:04:44;;;;;;;19.20;13.52;;;8.70;60.20;;;;;;5051764;28;20025;-88
2022/01/17 19:07:10;;;;;;;19.30;12.38;;;8.80;60.50;;;;;;4701867;28;10000423;-94
2022/01/17 19:09:36;;;;;;;8.32;4.53;;;9.10;59.80;;;;;;5051470;28;20029;-86
2022/01/17 19:12:02;;;;;;;14.70;11.27;;;9.30;59.30;;;;;;5051768;28;20021;-79
2022/01/17 19:14:30;;;;;;;3.70;1.80;;;9.10;59.10;;;;;;5051657;28;20025;-81
2022/01/17 19:16:58;;;;;;;8.25;4.85;;;8.50;60.30;;;;;;5066315;28;20072;-85
2022/01/17 19:19:44;;;;;;;33.47;29.83;;;8.90;60.70;;;;;;5051737;28;20535;-80
2022/01/17 19:22:10;;;;;;;19.08;17.10;;;8.90;60.00;;;;;;5041841;28;20059;-85
2022/01/17 19:24:35;;;;;;;6.70;3.55;;;8.90;59.70;;;;;;5052765;28;20472;-85
2022/01/17 19:27:01;;;;;;;15.23;9.00;;;9.00;59.40;;;;;;5051656;28;20356;-83
2022/01/17 19:29:27;;;;;;;13.07;10.38;;;9.00;59.00;;;;;;4705549;28;9999828;-80
2022/01/17 19:31:53;;;;;;;8.70;6.25;;;9.10;58.80;;;;;;5049246;28;20037;-91
2022/01/17 19:34:19;;;;;;;19.10;12.55;;;9.10;58.40;;;;;;5050748;28;20104;-83
2022/01/17 19:36:46;;;;;;;23.48;16.83;;;8.70;58.20;;;;;;5066705;28;20111;-79
2022/01/17 19:39:12;;;;;;;18.50;13.35;;;8.50;59.20;;;;;;5053344;28;20035;-90
2022/01/17 19:41:38;;;;;;;11.43;7.53;;;8.20;59.20;;;;;;5052938;28;20055;-88
2022/01/17 19:44:04;;;;;;;5.95;3.38;;;8.40;59.90;;;;;;5053190;28;20021;-81
2022/01/17 19:46:30;;;;;;;12.68;7.85;;;8.40;58.90;;;;;;5070379;28;20021;-79
2022/01/17 19:48:59;;;;;;;5.28;2.67;;;8.70;58.40;;;;;;5073226;28;20032;-82
2022/01/17 19:51:33;;;;;;;15.75;10.05;;;8.70;57.90;;;;;;5041485;28;20035;-82
2022/01/17 19:53:59;;;;;;;19.00;8.40;;;8.60;58.00;;;;;;5071717;28;20047;-80
2022/01/17 19:56:25;;;;;;;22.05;11.07;;;8.30;58.50;;;;;;5043492;28;20033;-81
2022/01/17 19:58:51;;;;;;;117.82;57.88;;;8.00;59.00;;;;;;5033190;28;20497;-80
2022/01/17 20:01:18;;;;;;;155.63;115.53;;;8.00;59.10;;;;;;5033827;28;20021;-82
2022/01/17 20:03:44;;;;;;;141.30;125.35;;;7.90;59.20;;;;;;5051487;28;20054;-85
2022/01/17 20:06:13;;;;;;;7.13;5.07;;;8.00;58.70;;;;;;5051551;28;20064;-79
2022/01/17 20:08:39;;;;;;;45.75;41.25;;;8.30;58.10;;;;;;5069746;28;20101;-82
2022/01/17 20:11:07;;;;;;;17.50;15.73;;;8.70;57.30;;;;;;5051961;28;20127;-83
2022/01/17 20:13:35;;;;;;;11.30;8.50;;;8.40;57.30;;;;;;5069172;28;20017;-81
2022/01/17 20:16:01;;;;;;;22.02;19.35;;;8.20;57.60;;;;;;5068907;28;20040;-79
2022/01/17 20:18:27;;;;;;;16.55;13.70;;;8.20;57.80;;;;;;5051827;28;20438;-80
2022/01/17 20:20:53;;;;;;;27.38;23.80;;;8.20;57.80;;;;;;5051138;28;20125;-79
2022/01/17 20:23:20;;;;;;;7.78;5.88;;;8.20;57.60;;;;;;5072867;28;20512;-81